ADB1089 UKBB-UKOO
Flight info
| Callsign | ADB1089 |
|---|---|
| Flight time | 0h 41m |
| Altitude | 29000 |
| Route | BASOR M856 GOBLI L919 ODSAN |
| Aircraft | A124/J-SCDFGHIRUWXYZ/LB1 |
Departure
| Time | 2026-04-21 23:59 |
|---|---|
| Airport | Boryspil International Airport (UKBB) |
Arrival
| Time | 2026-04-22 00:41 |
|---|---|
| Airport | Odesa International Airport (UKOO) |
| Time | Latitude | Longitude | Altitude | Speed | Heading |
|---|---|---|---|---|---|
| 2026-04-21 23:51 | 50.36613 | 30.91082 | 439 ft | 0 kts | 263° |
| 2026-04-21 23:53 | 50.36613 | 30.91081 | 439 ft | 0 kts | 263° |
| 2026-04-21 23:54 | 50.36613 | 30.91071 | 427 ft | 2 kts | 264° |
| 2026-04-21 23:54 | 50.36601 | 30.91048 | 426 ft | 2 kts | 218° |
| 2026-04-21 23:54 | 50.36575 | 30.91044 | 425 ft | 8 kts | 177° |
| 2026-04-21 23:54 | 50.36480 | 30.91115 | 427 ft | 23 kts | 144° |
| 2026-04-21 23:55 | 50.36341 | 30.91223 | 427 ft | 15 kts | 181° |
| 2026-04-21 23:55 | 50.36276 | 30.91216 | 427 ft | 13 kts | 185° |
| 2026-04-21 23:55 | 50.36180 | 30.91209 | 428 ft | 8 kts | 180° |
| 2026-04-21 23:55 | 50.36138 | 30.91206 | 432 ft | 4 kts | 184° |
| 2026-04-21 23:56 | 50.36117 | 30.91202 | 427 ft | 2 kts | 187° |
| 2026-04-21 23:56 | 50.36094 | 30.91198 | 432 ft | 5 kts | 186° |
| 2026-04-21 23:56 | 50.36054 | 30.91180 | 427 ft | 6 kts | 208° |
| 2026-04-21 23:56 | 50.36032 | 30.91128 | 423 ft | 5 kts | 255° |
| 2026-04-21 23:57 | 50.36032 | 30.91063 | 434 ft | 7 kts | 271° |
| 2026-04-21 23:57 | 50.36034 | 30.90960 | 436 ft | 12 kts | 272° |
| 2026-04-21 23:57 | 50.36038 | 30.90802 | 431 ft | 18 kts | 272° |
| 2026-04-21 23:57 | 50.35999 | 30.90662 | 427 ft | 11 kts | 224° |
| 2026-04-21 23:58 | 50.35955 | 30.90638 | 429 ft | 0 kts | 183° |
| 2026-04-21 23:58 | 50.35924 | 30.90635 | 434 ft | 19 kts | 187° |
| 2026-04-21 23:59 | 50.35554 | 30.90602 | 433 ft | 90 kts | 182° |
| 2026-04-21 23:59 | 50.34642 | 30.90542 | 431 ft | 173 kts | 182° |
| 2026-04-21 23:59 | 50.33199 | 30.90429 | 855 ft | 233 kts | 183° |
| 2026-04-21 23:59 | 50.31479 | 30.90271 | 2078 ft | 259 kts | 187° |
| 2026-04-22 00:00 | 50.29657 | 30.89768 | 3700 ft | 268 kts | 193° |
| 2026-04-22 00:00 | 50.27892 | 30.89190 | 5187 ft | 258 kts | 192° |
| 2026-04-22 00:00 | 50.26089 | 30.88592 | 6435 ft | 274 kts | 193° |
| 2026-04-22 00:00 | 50.24146 | 30.88028 | 7256 ft | 280 kts | 187° |
| 2026-04-22 00:01 | 50.22251 | 30.87822 | 7635 ft | 277 kts | 184° |
| 2026-04-22 00:01 | 50.20340 | 30.87624 | 7832 ft | 279 kts | 185° |
| 2026-04-22 00:01 | 50.18377 | 30.87347 | 7934 ft | 278 kts | 189° |
| 2026-04-22 00:01 | 50.16499 | 30.86817 | 7980 ft | 277 kts | 193° |
| 2026-04-22 00:02 | 50.14618 | 30.86194 | 7999 ft | 276 kts | 193° |
| 2026-04-22 00:02 | 50.12735 | 30.85609 | 8010 ft | 276 kts | 192° |
| 2026-04-22 00:02 | 50.10851 | 30.85050 | 8019 ft | 276 kts | 192° |
| 2026-04-22 00:02 | 50.08965 | 30.84481 | 8022 ft | 276 kts | 192° |
| 2026-04-22 00:03 | 50.07080 | 30.83870 | 8019 ft | 276 kts | 193° |
| 2026-04-22 00:03 | 50.05191 | 30.83303 | 8022 ft | 276 kts | 192° |
| 2026-04-22 00:03 | 50.03298 | 30.82784 | 8020 ft | 275 kts | 191° |
| 2026-04-22 00:03 | 50.01409 | 30.82254 | 8014 ft | 275 kts | 192° |
| 2026-04-22 00:04 | 49.99528 | 30.81708 | 8022 ft | 275 kts | 192° |
| 2026-04-22 00:04 | 49.97649 | 30.81163 | 8015 ft | 275 kts | 192° |
| 2026-04-22 00:04 | 49.96406 | 30.80804 | 8016 ft | 275 kts | 192° |
| 2026-04-22 00:04 | 49.93912 | 30.80093 | 8013 ft | 275 kts | 192° |
| 2026-04-22 00:05 | 49.92030 | 30.79554 | 8018 ft | 275 kts | 192° |
| 2026-04-22 00:05 | 49.90159 | 30.79018 | 8193 ft | 267 kts | 192° |
| 2026-04-22 00:05 | 49.88367 | 30.78509 | 8654 ft | 256 kts | 192° |
| 2026-04-22 00:05 | 49.86491 | 30.77964 | 8822 ft | 299 kts | 192° |
| 2026-04-22 00:06 | 49.84310 | 30.77336 | 9520 ft | 338 kts | 192° |
| 2026-04-22 00:06 | 49.82731 | 30.76892 | 9964 ft | 366 kts | 192° |
| 2026-04-22 00:06 | 49.79116 | 30.75868 | 10771 ft | 422 kts | 192° |
| 2026-04-22 00:06 | 49.77147 | 30.75303 | 11131 ft | 426 kts | 192° |
| 2026-04-22 00:07 | 49.73303 | 30.74220 | 11971 ft | 427 kts | 192° |
| 2026-04-22 00:07 | 49.70365 | 30.73369 | 12655 ft | 432 kts | 192° |
| 2026-04-22 00:07 | 49.68368 | 30.72819 | 13168 ft | 432 kts | 191° |
| 2026-04-22 00:07 | 49.65386 | 30.71960 | 13927 ft | 437 kts | 192° |
| 2026-04-22 00:08 | 49.62418 | 30.71127 | 14598 ft | 442 kts | 191° |
| 2026-04-22 00:08 | 49.59374 | 30.70271 | 15288 ft | 446 kts | 191° |
| 2026-04-22 00:08 | 49.56293 | 30.69563 | 15998 ft | 450 kts | 188° |
| 2026-04-22 00:08 | 49.53158 | 30.69121 | 16703 ft | 456 kts | 181° |
| 2026-04-22 00:09 | 49.49965 | 30.69170 | 17491 ft | 460 kts | 183° |
| 2026-04-22 00:09 | 49.46752 | 30.68998 | 18349 ft | 466 kts | 181° |
| 2026-04-22 00:09 | 49.43485 | 30.69029 | 19100 ft | 472 kts | 182° |
| 2026-04-22 00:09 | 49.40186 | 30.68876 | 19855 ft | 476 kts | 181° |
| 2026-04-22 00:10 | 49.36846 | 30.68875 | 20637 ft | 480 kts | 182° |
| 2026-04-22 00:10 | 49.33483 | 30.68747 | 21445 ft | 481 kts | 181° |
| 2026-04-22 00:10 | 49.30148 | 30.68718 | 22264 ft | 477 kts | 181° |
| 2026-04-22 00:10 | 49.26843 | 30.68621 | 23110 ft | 474 kts | 181° |
| 2026-04-22 00:11 | 49.23595 | 30.68564 | 23907 ft | 472 kts | 181° |
| 2026-04-22 00:11 | 49.20310 | 30.68492 | 24641 ft | 472 kts | 181° |
| 2026-04-22 00:11 | 49.17030 | 30.68419 | 25398 ft | 470 kts | 181° |
| 2026-04-22 00:11 | 49.13765 | 30.68353 | 26177 ft | 468 kts | 181° |
| 2026-04-22 00:12 | 49.10510 | 30.68283 | 26978 ft | 465 kts | 181° |
| 2026-04-22 00:12 | 49.07278 | 30.68211 | 27800 ft | 463 kts | 181° |
| 2026-04-22 00:12 | 49.04061 | 30.68155 | 28523 ft | 466 kts | 181° |
| 2026-04-22 00:12 | 49.00798 | 30.68080 | 28806 ft | 469 kts | 182° |
| 2026-04-22 00:13 | 48.97538 | 30.68005 | 28920 ft | 467 kts | 181° |
| 2026-04-22 00:13 | 48.91085 | 30.67872 | 28995 ft | 462 kts | 181° |
| 2026-04-22 00:14 | 48.84660 | 30.67735 | 29026 ft | 462 kts | 181° |
| 2026-04-22 00:14 | 48.78255 | 30.67605 | 29009 ft | 462 kts | 182° |
| 2026-04-22 00:15 | 48.71839 | 30.67465 | 29021 ft | 459 kts | 182° |
| 2026-04-22 00:15 | 48.65445 | 30.67334 | 29018 ft | 460 kts | 182° |
| 2026-04-22 00:16 | 48.59029 | 30.67202 | 29020 ft | 460 kts | 182° |
| 2026-04-22 00:16 | 48.52624 | 30.67067 | 29011 ft | 459 kts | 182° |
| 2026-04-22 00:17 | 48.46232 | 30.66935 | 29022 ft | 460 kts | 182° |
| 2026-04-22 00:17 | 48.39869 | 30.66804 | 29021 ft | 460 kts | 182° |
| 2026-04-22 00:18 | 48.33476 | 30.66674 | 29014 ft | 459 kts | 182° |
| 2026-04-22 00:18 | 48.27061 | 30.66538 | 29025 ft | 468 kts | 182° |
| 2026-04-22 00:19 | 48.20599 | 30.66409 | 29003 ft | 459 kts | 182° |
| 2026-04-22 00:19 | 48.14243 | 30.66277 | 29005 ft | 457 kts | 182° |
| 2026-04-22 00:20 | 48.07973 | 30.64979 | 29033 ft | 456 kts | 196° |
| 2026-04-22 00:20 | 48.01933 | 30.62133 | 29019 ft | 454 kts | 202° |
| 2026-04-22 00:21 | 47.96168 | 30.58343 | 29015 ft | 451 kts | 208° |
| 2026-04-22 00:21 | 47.90542 | 30.54142 | 29012 ft | 453 kts | 206° |
| 2026-04-22 00:22 | 47.84700 | 30.50751 | 29008 ft | 455 kts | 196° |
| 2026-04-22 00:22 | 47.81571 | 30.49926 | 28796 ft | 459 kts | 185° |
| 2026-04-22 00:22 | 47.78390 | 30.49910 | 28951 ft | 453 kts | 180° |
| 2026-04-22 00:23 | 47.72043 | 30.50523 | 28982 ft | 459 kts | 175° |
| 2026-04-22 00:23 | 47.65687 | 30.51531 | 29003 ft | 459 kts | 174° |
| 2026-04-22 00:24 | 47.59343 | 30.52572 | 28997 ft | 459 kts | 176° |
| 2026-04-22 00:24 | 47.53017 | 30.53594 | 28534 ft | 464 kts | 175° |
| 2026-04-22 00:24 | 47.49788 | 30.54113 | 27830 ft | 468 kts | 175° |
| 2026-04-22 00:25 | 47.46540 | 30.54633 | 27174 ft | 472 kts | 175° |
| 2026-04-22 00:25 | 47.43260 | 30.55164 | 26521 ft | 475 kts | 175° |
| 2026-04-22 00:25 | 47.39966 | 30.55685 | 25890 ft | 478 kts | 175° |
| 2026-04-22 00:25 | 47.36659 | 30.56217 | 25269 ft | 480 kts | 175° |
| 2026-04-22 00:26 | 47.33324 | 30.56748 | 24641 ft | 482 kts | 175° |
| 2026-04-22 00:26 | 47.29980 | 30.57282 | 24033 ft | 483 kts | 175° |
| 2026-04-22 00:26 | 47.26643 | 30.57814 | 23403 ft | 483 kts | 175° |
| 2026-04-22 00:26 | 47.23302 | 30.58348 | 22686 ft | 483 kts | 175° |
| 2026-04-22 00:27 | 47.19957 | 30.58877 | 21989 ft | 482 kts | 175° |
| 2026-04-22 00:27 | 47.16627 | 30.59406 | 21311 ft | 482 kts | 175° |
| 2026-04-22 00:27 | 47.13314 | 30.59930 | 20488 ft | 468 kts | 175° |
| 2026-04-22 00:27 | 47.11337 | 30.60250 | 20038 ft | 468 kts | 175° |
| 2026-04-22 00:28 | 47.06876 | 30.60948 | 19009 ft | 469 kts | 176° |
| 2026-04-22 00:28 | 47.03634 | 30.61461 | 18310 ft | 465 kts | 176° |
| 2026-04-22 00:28 | 47.00484 | 30.61956 | 17760 ft | 449 kts | 176° |
| 2026-04-22 00:28 | 46.97385 | 30.62444 | 17213 ft | 449 kts | 176° |
| 2026-04-22 00:29 | 46.94271 | 30.62934 | 16683 ft | 451 kts | 176° |
| 2026-04-22 00:29 | 46.91188 | 30.63419 | 16155 ft | 452 kts | 176° |
| 2026-04-22 00:29 | 46.88058 | 30.63910 | 15637 ft | 452 kts | 176° |
| 2026-04-22 00:29 | 46.84959 | 30.64401 | 15109 ft | 447 kts | 176° |
| 2026-04-22 00:30 | 46.81862 | 30.64876 | 14619 ft | 445 kts | 176° |
| 2026-04-22 00:30 | 46.78795 | 30.65366 | 14115 ft | 443 kts | 176° |
| 2026-04-22 00:30 | 46.75734 | 30.65835 | 13661 ft | 440 kts | 176° |
| 2026-04-22 00:30 | 46.72712 | 30.66317 | 13044 ft | 436 kts | 176° |
| 2026-04-22 00:31 | 46.69700 | 30.66777 | 12500 ft | 433 kts | 176° |
| 2026-04-22 00:31 | 46.66758 | 30.67240 | 11958 ft | 416 kts | 176° |
| 2026-04-22 00:31 | 46.63887 | 30.67681 | 11427 ft | 414 kts | 176° |
| 2026-04-22 00:31 | 46.61022 | 30.68134 | 10915 ft | 415 kts | 176° |
| 2026-04-22 00:32 | 46.58146 | 30.68570 | 10415 ft | 417 kts | 176° |
| 2026-04-22 00:32 | 46.55273 | 30.69030 | 9895 ft | 403 kts | 176° |
| 2026-04-22 00:32 | 46.52677 | 30.69429 | 9227 ft | 354 kts | 176° |
| 2026-04-22 00:32 | 46.50330 | 30.69787 | 8574 ft | 319 kts | 176° |
| 2026-04-22 00:33 | 46.48221 | 30.70110 | 7959 ft | 293 kts | 175° |
| 2026-04-22 00:33 | 46.46306 | 30.70761 | 7301 ft | 273 kts | 168° |
| 2026-04-22 00:33 | 46.44472 | 30.71161 | 6447 ft | 265 kts | 174° |
| 2026-04-22 00:33 | 46.42652 | 30.71485 | 5452 ft | 263 kts | 171° |
| 2026-04-22 00:34 | 46.40859 | 30.71944 | 4521 ft | 265 kts | 168° |
| 2026-04-22 00:34 | 46.39088 | 30.72476 | 3819 ft | 255 kts | 162° |
| 2026-04-22 00:34 | 46.37426 | 30.73372 | 2972 ft | 254 kts | 155° |
| 2026-04-22 00:34 | 46.35842 | 30.74408 | 2410 ft | 249 kts | 153° |
| 2026-04-22 00:35 | 46.34301 | 30.75472 | 2784 ft | 247 kts | 153° |
| 2026-04-22 00:35 | 46.32704 | 30.76593 | 2604 ft | 256 kts | 152° |
| 2026-04-22 00:35 | 46.31153 | 30.77708 | 2887 ft | 241 kts | 152° |
| 2026-04-22 00:35 | 46.29608 | 30.78820 | 3012 ft | 257 kts | 152° |
| 2026-04-22 00:36 | 46.27947 | 30.79823 | 2750 ft | 261 kts | 171° |
| 2026-04-22 00:36 | 46.26174 | 30.79654 | 2617 ft | 254 kts | 203° |
| 2026-04-22 00:36 | 46.24762 | 30.78281 | 2596 ft | 238 kts | 235° |
| 2026-04-22 00:36 | 46.24160 | 30.76229 | 2885 ft | 219 kts | 268° |
| 2026-04-22 00:37 | 46.24443 | 30.74117 | 2862 ft | 212 kts | 303° |
| 2026-04-22 00:37 | 46.25479 | 30.72727 | 2818 ft | 203 kts | 340° |
| 2026-04-22 00:37 | 46.26843 | 30.72248 | 2772 ft | 203 kts | 351° |
| 2026-04-22 00:37 | 46.28236 | 30.71900 | 2693 ft | 202 kts | 352° |
| 2026-04-22 00:38 | 46.29609 | 30.71598 | 2705 ft | 202 kts | 353° |
| 2026-04-22 00:38 | 46.31029 | 30.71314 | 2304 ft | 211 kts | 352° |
| 2026-04-22 00:38 | 46.32469 | 30.71097 | 2075 ft | 196 kts | 355° |
| 2026-04-22 00:38 | 46.33734 | 30.70969 | 1762 ft | 174 kts | 355° |
| 2026-04-22 00:39 | 46.34531 | 30.70857 | 1484 ft | 169 kts | 354° |
| 2026-04-22 00:39 | 46.36025 | 30.70421 | 1132 ft | 162 kts | 346° |
| 2026-04-22 00:39 | 46.37106 | 30.70003 | 926 ft | 160 kts | 345° |
| 2026-04-22 00:39 | 46.38203 | 30.69566 | 722 ft | 165 kts | 343° |
| 2026-04-22 00:40 | 46.39293 | 30.69098 | 582 ft | 160 kts | 343° |
| 2026-04-22 00:40 | 46.40350 | 30.68637 | 378 ft | 159 kts | 344° |
| 2026-04-22 00:40 | 46.41429 | 30.68182 | 228 ft | 164 kts | 343° |
| 2026-04-22 00:40 | 46.42483 | 30.67731 | 180 ft | 148 kts | 343° |
| 2026-04-22 00:41 | 46.43312 | 30.67379 | 183 ft | 90 kts | 343° |
| 2026-04-22 00:41 | 46.43703 | 30.67210 | 185 ft | 31 kts | 343° |
| 2026-04-22 00:41 | 46.43795 | 30.67169 | 185 ft | 9 kts | 342° |
| 2026-04-22 00:41 | 46.43842 | 30.67152 | 196 ft | 5 kts | 353° |
| 2026-04-22 00:42 | 46.43865 | 30.67158 | 195 ft | 3 kts | 17° |
| 2026-04-22 00:42 | 46.43879 | 30.67178 | 199 ft | 3 kts | 53° |
| 2026-04-22 00:42 | 46.43889 | 30.67218 | 190 ft | 11 kts | 70° |
| 2026-04-22 00:42 | 46.43928 | 30.67407 | 184 ft | 21 kts | 72° |
| 2026-04-22 00:43 | 46.43939 | 30.67577 | 192 ft | 15 kts | 90° |
| 2026-04-22 00:43 | 46.43944 | 30.67654 | 184 ft | 0 kts | 82° |